Time;durP1;ratioP1;P1;durP2;ratioP2;P2;SDS_P1;SDS_P2;PMS_P1;PMS_P2;Temp;Humidity;BMP_temperature;BMP_pressure;BME280_temperature;BME280_humidity;BME280_pressure;Samples;Min_cycle;Max_cycle;Signal;HPM_P1;HPM_P2
2022/01/20 00:01:39;;;;;;;4.67;3.50;;;;;;;2.91;94.79;98768.69;5057054;28;20225;-70
2022/01/20 00:04:15;;;;;;;3.70;3.10;;;;;;;2.90;94.01;98781.03;5057124;28;20189;-70
2022/01/20 00:09:41;;;;;;;3.67;3.30;;;;;;;2.89;94.98;98774.09;5056876;28;20172;-69
2022/01/20 00:23:18;;;;;;;3.20;2.90;;;;;;;2.98;94.93;98780.25;5056590;28;20184;-70
2022/01/20 00:25:58;;;;;;;3.67;3.07;;;;;;;2.98;95.24;98773.19;5056452;28;20194;-70
2022/01/20 00:28:38;;;;;;;3.87;3.20;;;;;;;2.96;94.36;98777.78;5057111;28;20243;-70
2022/01/20 00:31:11;;;;;;;3.77;3.10;;;;;;;2.99;94.42;98782.72;5056353;28;20275;-70
2022/01/20 00:33:43;;;;;;;3.67;3.10;;;;;;;3.01;94.44;98779.94;5056597;28;20518;-70
2022/01/20 00:38:54;;;;;;;3.23;2.70;;;;;;;3.01;95.06;98775.50;5056648;28;20644;-70
2022/01/20 00:41:20;;;;;;;3.17;2.83;;;;;;;3.04;94.69;98782.25;5056464;28;20225;-70
2022/01/20 00:43:47;;;;;;;2.80;2.60;;;;;;;2.99;94.46;98789.78;5056168;28;20599;-70
2022/01/20 00:46:13;;;;;;;2.87;2.53;;;;;;;3.00;95.39;98791.41;5056428;28;20228;-70
2022/01/20 00:48:39;;;;;;;3.90;3.03;;;;;;;3.01;96.67;98800.94;5056896;28;20208;-70
2022/01/20 00:51:06;;;;;;;3.27;2.47;;;;;;;2.94;95.03;98794.66;5056284;28;20229;-70
2022/01/20 00:53:32;;;;;;;3.43;2.60;;;;;;;2.98;95.55;98806.53;5056252;28;20213;-70
2022/01/20 00:55:59;;;;;;;3.00;2.60;;;;;;;2.92;96.00;98810.56;5056316;28;20194;-70
2022/01/20 00:58:25;;;;;;;2.90;2.70;;;;;;;2.86;97.60;98797.22;5056326;28;20223;-69
2022/01/20 01:00:52;;;;;;;3.70;2.77;;;;;;;2.85;96.07;98803.47;5056262;28;20217;-70
2022/01/20 01:03:18;;;;;;;2.77;2.43;;;;;;;2.80;97.37;98800.47;5055925;28;20208;-70
2022/01/20 01:05:59;;;;;;;2.40;2.20;;;;;;;2.82;97.57;98811.63;5057875;28;20201;-70
2022/01/20 01:08:25;;;;;;;3.17;2.87;;;;;;;2.82;97.56;98811.63;5060428;28;20197;-70
2022/01/20 01:10:52;;;;;;;2.70;2.33;;;;;;;2.84;97.21;98809.69;5060093;28;20237;-71
2022/01/20 01:13:20;;;;;;;2.53;2.33;;;;;;;2.81;97.89;98808.22;5059854;28;20529;-70
2022/01/20 01:15:48;;;;;;;2.53;2.33;;;;;;;2.83;98.41;98821.16;5060244;28;20209;-70
2022/01/20 01:21:14;;;;;;;2.93;2.30;;;;;;;2.83;98.90;98821.16;5059995;28;20245;-70
2022/01/20 01:23:43;;;;;;;2.83;2.40;;;;;;;2.78;98.46;98819.00;5060098;28;20196;-70
2022/01/20 01:26:14;;;;;;;2.57;2.30;;;;;;;2.85;99.13;98816.59;5060045;28;20201;-70
2022/01/20 01:28:41;;;;;;;2.07;1.93;;;;;;;2.84;98.58;98820.19;5060035;28;20272;-70
2022/01/20 01:31:29;;;;;;;2.57;2.37;;;;;;;2.90;99.63;98819.59;5059878;28;20271;-69
2022/01/20 01:33:58;;;;;;;2.73;2.53;;;;;;;2.84;100.00;98817.56;5059875;28;20255;-70
2022/01/20 01:36:27;;;;;;;2.30;2.10;;;;;;;2.84;98.59;98820.19;5059804;28;20300;-70
2022/01/20 01:38:54;;;;;;;2.63;2.10;;;;;;;2.88;98.95;98814.47;5059494;28;20201;-70
2022/01/20 01:41:29;;;;;;;2.00;1.80;;;;;;;2.82;100.00;98824.75;5059670;28;20221;-70
2022/01/20 01:43:57;;;;;;;1.97;1.87;;;;;;;2.87;99.98;98817.25;5059463;28;20192;-70
2022/01/20 01:46:24;;;;;;;1.90;1.80;;;;;;;2.85;99.25;98808.72;5059727;28;20221;-69
2022/01/20 01:48:50;;;;;;;1.83;1.73;;;;;;;2.86;99.54;98805.09;5059609;28;20205;-70
2022/01/20 01:51:17;;;;;;;2.90;2.10;;;;;;;2.89;99.17;98812.69;5059536;28;20225;-70
2022/01/20 01:53:43;;;;;;;2.03;1.93;;;;;;;2.90;100.00;98812.53;5059097;28;20217;-69
2022/01/20 01:56:10;;;;;;;2.20;1.67;;;;;;;2.83;99.71;98808.03;5059466;28;20190;-70
2022/01/20 01:58:36;;;;;;;2.10;1.90;;;;;;;2.84;99.71;98813.13;5059391;28;20296;-70
2022/01/20 02:01:03;;;;;;;1.93;1.50;;;;;;;2.83;98.63;98813.28;5059073;28;20304;-70
2022/01/20 02:03:31;;;;;;;3.90;2.90;;;;;;;2.84;98.41;98807.06;5059038;28;20537;-70
2022/01/20 02:06:16;;;;;;;2.77;2.40;;;;;;;2.82;97.52;98807.22;5059322;28;20205;-70
2022/01/20 02:08:53;;;;;;;3.70;1.90;;;;;;;2.77;98.89;98809.47;5059664;28;20292;-70
2022/01/20 02:19:30;;;;;;;1.80;1.70;;;;;;;2.79;98.13;98790.94;5058579;28;20529;-70
2022/01/20 02:22:02;;;;;;;2.07;1.87;;;;;;;2.82;98.30;98788.84;5058708;28;20209;-70
2022/01/20 02:24:29;;;;;;;1.80;1.40;;;;;;;2.81;97.94;98789.00;5058721;28;20200;-70
2022/01/20 02:26:56;;;;;;;1.53;1.43;;;;;;;2.80;99.13;98782.91;5058884;28;20239;-70
2022/01/20 02:29:22;;;;;;;2.53;1.63;;;;;;;2.84;98.86;98780.81;5058864;28;20509;-69
2022/01/20 02:31:54;;;;;;;1.57;1.43;;;;;;;2.89;99.52;98784.59;5058469;28;20236;-70
2022/01/20 02:34:21;;;;;;;1.60;1.50;;;;;;;2.91;97.97;98776.59;5058478;28;20209;-70
2022/01/20 02:36:48;;;;;;;1.43;1.30;;;;;;;2.95;97.83;98778.75;5058408;28;20202;-70
2022/01/20 02:39:24;;;;;;;1.30;1.20;;;;;;;2.96;97.01;98787.44;5058400;28;20637;-70
2022/01/20 02:44:52;;;;;;;1.33;1.23;;;;;;;3.01;97.36;98785.19;5058452;28;20164;-70
2022/01/20 02:47:21;;;;;;;1.40;1.30;;;;;;;3.03;97.87;98793.75;5058260;28;20201;-70
2022/01/20 02:49:48;;;;;;;1.20;1.10;;;;;;;3.05;97.82;98783.91;5058085;28;20221;-70
2022/01/20 02:52:14;;;;;;;2.37;1.50;;;;;;;2.98;98.46;98788.13;5058476;28;20205;-70
2022/01/20 02:54:42;;;;;;;1.73;1.40;;;;;;;3.01;98.17;98793.06;5058305;28;20221;-70
2022/01/20 02:57:08;;;;;;;1.30;1.20;;;;;;;3.05;98.63;98800.50;5058330;28;20201;-70
2022/01/20 02:59:35;;;;;;;1.60;1.50;;;;;;;3.02;99.73;98797.38;5058212;28;20205;-71
2022/01/20 03:02:03;;;;;;;1.30;1.20;;;;;;;3.11;97.22;98801.69;5058326;28;20217;-71
2022/01/20 03:04:30;;;;;;;1.30;1.20;;;;;;;3.19;96.62;98796.47;5057900;28;20201;-72
2022/01/20 03:06:57;;;;;;;1.17;1.10;;;;;;;3.24;95.67;98789.78;5058181;28;20241;-71
2022/01/20 03:09:24;;;;;;;1.30;1.20;;;;;;;3.23;95.87;98792.56;5057808;28;20205;-71
2022/01/20 03:11:50;;;;;;;1.63;1.53;;;;;;;3.29;95.71;98797.22;5057636;28;20236;-71
2022/01/20 03:14:18;;;;;;;1.30;1.20;;;;;;;3.27;95.64;98804.41;5057661;28;20213;-71
2022/01/20 03:16:45;;;;;;;1.30;1.23;;;;;;;3.24;97.10;98802.09;5057977;28;20274;-71
2022/01/20 03:19:13;;;;;;;1.53;1.43;;;;;;;3.32;96.99;98802.13;5057614;28;20543;-71
2022/01/20 03:21:41;;;;;;;1.23;1.13;;;;;;;3.31;95.87;98803.13;5057495;28;20229;-72
2022/01/20 03:24:08;;;;;;;1.87;1.67;;;;;;;3.30;96.69;98799.66;5057894;28;20492;-71
2022/01/20 03:26:35;;;;;;;1.60;1.50;;;;;;;3.40;96.05;98804.81;5057779;28;20333;-71
2022/01/20 03:29:02;;;;;;;1.63;1.53;;;;;;;3.42;95.21;98802.84;5056713;28;20189;-73
2022/01/20 03:31:30;;;;;;;1.70;1.60;;;;;;;3.41;96.16;98803.84;5057392;28;20665;-72
2022/01/20 03:33:56;;;;;;;2.07;1.87;;;;;;;3.40;96.53;98807.44;5057512;28;20260;-71
2022/01/20 03:36:23;;;;;;;2.17;2.03;;;;;;;3.36;97.49;98788.53;5057569;28;20209;-72
2022/01/20 03:38:49;;;;;;;1.80;1.70;;;;;;;3.40;95.69;98803.03;5057594;28;20208;-72
2022/01/20 03:41:16;;;;;;;2.40;2.07;;;;;;;3.41;97.88;98801.22;5057400;28;20231;-71
2022/01/20 03:43:43;;;;;;;2.60;2.23;;;;;;;3.41;95.66;98798.56;5057420;28;20206;-72
2022/01/20 03:46:12;;;;;;;2.60;2.40;;;;;;;3.39;96.44;98790.84;5057394;28;20197;-71
2022/01/20 03:48:49;;;;;;;2.60;2.17;;;;;;;3.39;95.48;98792.66;5057404;28;20509;-72
2022/01/20 03:51:20;;;;;;;2.40;2.20;;;;;;;3.46;94.94;98801.56;5057313;28;20311;-72
2022/01/20 03:53:48;;;;;;;3.07;2.20;;;;;;;3.49;95.04;98793.38;5057264;28;20243;-72
2022/01/20 03:56:15;;;;;;;2.03;1.93;;;;;;;3.43;94.93;98786.13;5056950;28;20197;-71
2022/01/20 03:58:41;;;;;;;2.63;2.43;;;;;;;3.41;95.19;98788.06;5057160;28;20227;-71
2022/01/20 04:01:08;;;;;;;2.50;2.30;;;;;;;3.43;94.91;98786.13;5056834;28;20642;-71
2022/01/20 04:03:34;;;;;;;2.30;2.10;;;;;;;3.46;92.80;98789.25;5057104;28;20197;-71
2022/01/20 04:06:00;;;;;;;2.23;2.03;;;;;;;3.45;93.91;98795.50;5056673;28;20626;-71
2022/01/20 04:08:48;;;;;;;2.43;2.23;;;;;;;3.38;93.61;98791.00;5056952;28;20202;-72
2022/01/20 04:11:21;;;;;;;2.10;2.00;;;;;;;3.39;93.41;98795.28;5056603;28;20543;-71
2022/01/20 04:13:47;;;;;;;3.53;2.33;;;;;;;3.32;94.12;98800.34;5056550;28;20501;-71
2022/01/20 04:16:19;;;;;;;2.77;2.57;;;;;;;3.28;94.97;98795.53;5056330;28;20197;-72
2022/01/20 04:18:53;;;;;;;2.67;2.47;;;;;;;3.30;95.16;98799.66;5057286;28;20247;-71
2022/01/20 04:21:25;;;;;;;2.60;2.40;;;;;;;3.27;96.51;98801.78;5056753;28;20225;-72
2022/01/20 04:23:51;;;;;;;2.57;2.37;;;;;;;3.30;95.30;98797.03;5056431;28;20603;-72
2022/01/20 04:26:19;;;;;;;2.70;2.50;;;;;;;3.33;94.94;98801.16;5056551;28;20196;-71
2022/01/20 04:28:45;;;;;;;2.87;2.57;;;;;;;3.41;95.10;98801.22;5056597;28;20201;-71
2022/01/20 04:31:12;;;;;;;4.10;2.40;;;;;;;3.35;94.58;98801.84;5056552;28;20224;-71
2022/01/20 04:33:38;;;;;;;3.17;2.40;;;;;;;3.37;94.98;98799.88;5072103;28;20201;-72
2022/01/20 04:36:06;;;;;;;2.53;2.30;;;;;;;3.34;93.85;98806.25;5056129;28;20229;-72
2022/01/20 04:38:32;;;;;;;2.67;2.27;;;;;;;3.34;94.71;98798.38;5055962;28;20201;-72
2022/01/20 04:40:58;;;;;;;2.73;2.53;;;;;;;3.35;93.46;98786.88;5055628;28;20700;-71
2022/01/20 04:43:26;;;;;;;2.07;1.97;;;;;;;3.44;94.71;98800.91;5056231;28;20202;-72
2022/01/20 04:45:59;;;;;;;2.57;2.10;;;;;;;3.42;95.37;98802.84;5056142;28;20213;-71
2022/01/20 04:48:32;;;;;;;2.57;2.27;;;;;;;3.30;94.53;98802.28;5056288;28;20194;-72
2022/01/20 04:59:11;;;;;;;2.53;2.33;;;;;;;3.26;98.18;98798.31;5056171;28;20196;-72
2022/01/20 05:01:44;;;;;;;2.07;1.87;;;;;;;3.06;97.49;98801.31;5056075;28;20232;-71
2022/01/20 05:04:10;;;;;;;2.83;2.23;;;;;;;2.94;98.80;98803.34;5055837;28;20185;-71
2022/01/20 05:06:39;;;;;;;2.53;2.33;;;;;;;2.92;99.79;98805.31;5055799;28;20220;-71
2022/01/20 05:09:05;;;;;;;2.67;2.30;;;;;;;2.92;100.00;98815.81;5055648;28;20209;-72
2022/01/20 05:11:35;;;;;;;2.57;2.37;;;;;;;2.87;100.00;98807.59;5056008;28;20236;-67
2022/01/20 05:14:01;;;;;;;3.17;2.93;;;;;;;2.87;100.00;98809.38;5055785;28;20477;-67
2022/01/20 05:16:27;;;;;;;2.73;2.53;;;;;;;2.93;100.00;98804.34;5055442;28;20487;-67
2022/01/20 05:18:54;;;;;;;2.90;2.20;;;;;;;2.98;100.00;98807.34;5055555;28;20212;-67
2022/01/20 05:21:20;;;;;;;3.70;2.60;;;;;;;2.97;100.00;98813.56;5055845;28;20221;-67
2022/01/20 05:23:46;;;;;;;2.20;2.00;;;;;;;2.97;100.00;98808.31;5055800;28;20307;-66
2022/01/20 05:26:13;;;;;;;4.17;2.60;;;;;;;2.96;100.00;98817.19;5055751;28;20208;-67
2022/01/20 05:28:39;;;;;;;3.67;2.93;;;;;;;2.92;100.00;98815.00;5055800;28;20244;-66
2022/01/20 05:31:06;;;;;;;3.20;2.50;;;;;;;2.90;100.00;98809.91;5055756;28;20221;-67
2022/01/20 05:33:32;;;;;;;2.73;2.53;;;;;;;2.90;100.00;98809.91;5055881;28;20189;-67
2022/01/20 05:35:58;;;;;;;2.90;2.70;;;;;;;2.89;100.00;98799.56;5055616;28;20229;-67
2022/01/20 05:38:25;;;;;;;2.97;2.67;;;;;;;2.89;100.00;98812.69;5055704;28;20204;-67
2022/01/20 05:40:51;;;;;;;2.47;2.27;;;;;;;2.88;100.00;98813.66;5054690;28;20227;-67
2022/01/20 05:43:18;;;;;;;2.30;2.10;;;;;;;2.90;100.00;98814.34;5053168;28;20494;-67
2022/01/20 05:45:44;;;;;;;2.93;2.63;;;;;;;2.96;100.00;98819.81;5053312;28;20186;-66
2022/01/20 05:48:14;;;;;;;2.47;2.10;;;;;;;2.89;99.94;98829.25;5053332;28;20319;-66
2022/01/20 05:50:41;;;;;;;4.50;2.53;;;;;;;2.89;100.00;98828.44;5053491;28;20229;-67
2022/01/20 05:53:08;;;;;;;4.60;2.53;;;;;;;2.89;100.00;98817.94;5055523;28;20216;-67
2022/01/20 05:55:35;;;;;;;2.53;2.33;;;;;;;2.88;99.92;98816.28;5056852;28;20221;-67
2022/01/20 05:58:02;;;;;;;2.43;2.23;;;;;;;2.86;99.56;98824.31;5058405;28;20194;-67
2022/01/20 06:00:28;;;;;;;4.40;2.60;;;;;;;2.87;100.00;98827.75;5058704;28;20525;-67
2022/01/20 06:05:40;;;;;;;2.80;2.60;;;;;;;2.87;100.00;98831.22;5058538;28;20172;-67
2022/01/20 06:08:08;;;;;;;3.50;2.37;;;;;;;2.90;100.00;98822.22;5058104;28;20603;-67
2022/01/20 06:10:34;;;;;;;3.20;2.53;;;;;;;2.85;100.00;98830.53;5058241;28;20236;-67
2022/01/20 06:13:01;;;;;;;3.40;2.77;;;;;;;2.91;99.82;98832.56;5058151;28;20208;-67
2022/01/20 06:15:28;;;;;;;3.50;2.93;;;;;;;2.88;100.00;98832.03;5058224;28;20217;-67
2022/01/20 06:17:54;;;;;;;3.07;2.77;;;;;;;2.84;100.00;98828.09;5058656;28;20197;-67
2022/01/20 06:20:21;;;;;;;3.40;2.73;;;;;;;2.82;100.00;98819.50;5058437;28;20229;-67
2022/01/20 06:22:47;;;;;;;2.90;2.70;;;;;;;2.80;100.00;98819.66;5058069;28;20208;-67
2022/01/20 06:25:14;;;;;;;3.00;2.40;;;;;;;2.84;100.00;98817.56;5058081;28;20182;-67
2022/01/20 06:27:40;;;;;;;3.37;2.67;;;;;;;2.85;99.89;98813.97;5058416;28;20220;-67
2022/01/20 06:30:08;;;;;;;2.70;2.50;;;;;;;2.84;100.00;98817.56;5058031;28;20233;-66
2022/01/20 06:32:34;;;;;;;4.13;2.63;;;;;;;2.91;99.90;98818.59;5058122;28;20208;-66
2022/01/20 06:35:02;;;;;;;4.40;2.80;;;;;;;2.90;100.00;98816.97;5057906;28;20231;-67
2022/01/20 06:37:28;;;;;;;2.97;2.60;;;;;;;3.03;98.40;98822.66;5058211;28;20201;-67
2022/01/20 06:39:54;;;;;;;3.60;3.30;;;;;;;2.96;100.00;98824.22;5057836;28;20685;-67
2022/01/20 06:42:21;;;;;;;3.47;3.10;;;;;;;2.96;100.00;98824.22;5057958;28;20202;-66
2022/01/20 06:44:47;;;;;;;3.93;3.00;;;;;;;2.95;100.00;98810.28;5057443;28;20202;-67
2022/01/20 06:47:14;;;;;;;4.27;3.30;;;;;;;3.00;99.20;98812.44;5057423;28;20444;-67
2022/01/20 06:49:40;;;;;;;5.77;3.23;;;;;;;3.05;98.18;98818.06;5057907;28;20201;-67
2022/01/20 06:52:07;;;;;;;4.43;3.33;;;;;;;3.00;98.64;98829.03;5057733;28;20212;-66
2022/01/20 06:54:34;;;;;;;5.03;3.30;;;;;;;2.92;98.62;98821.09;5057817;28;20209;-66
2022/01/20 06:57:00;;;;;;;3.37;3.07;;;;;;;2.84;98.92;98830.72;5057647;28;20667;-67
2022/01/20 06:59:27;;;;;;;4.90;3.27;;;;;;;2.85;98.37;98827.09;5057550;28;20189;-67
2022/01/20 07:01:53;;;;;;;4.87;3.10;;;;;;;2.78;98.57;98829.50;5057789;28;20197;-67
2022/01/20 07:04:20;;;;;;;3.70;2.60;;;;;;;2.78;97.39;98833.91;5057414;28;20621;-66
2022/01/20 07:06:46;;;;;;;5.30;3.13;;;;;;;2.65;99.05;98822.97;5058585;28;20198;-67
2022/01/20 07:09:13;;;;;;;3.90;2.90;;;;;;;2.61;98.65;98826.88;5057981;28;20194;-67
2022/01/20 07:11:40;;;;;;;4.13;3.00;;;;;;;2.52;98.92;98819.94;5057617;28;20647;-67
2022/01/20 07:14:08;;;;;;;7.60;2.87;;;;;;;2.53;98.52;98829.44;5054253;28;20205;-67
2022/01/20 07:16:34;;;;;;;4.90;2.67;;;;;;;2.47;99.32;98836.09;5037354;28;20301;-66
2022/01/20 07:19:01;;;;;;;3.63;2.97;;;;;;;2.40;99.97;98839.47;5037019;28;20205;-67
2022/01/20 07:21:28;;;;;;;3.13;2.20;;;;;;;2.39;98.96;98838.63;5036763;28;20640;-67
2022/01/20 07:23:54;;;;;;;4.30;2.47;;;;;;;2.43;98.48;98837.38;5037190;28;20190;-66
2022/01/20 07:26:21;;;;;;;3.67;2.63;;;;;;;2.40;98.91;98842.09;5037423;28;20197;-66
2022/01/20 07:28:47;;;;;;;4.47;2.10;;;;;;;2.39;98.46;98857.00;5036794;28;20595;-67
2022/01/20 07:31:15;;;;;;;7.00;2.50;;;;;;;2.41;98.06;98864.72;5036915;28;20237;-66
2022/01/20 07:33:42;;;;;;;5.00;2.37;;;;;;;2.38;98.60;98868.47;5037231;28;20190;-66
2022/01/20 07:36:09;;;;;;;3.07;2.20;;;;;;;2.44;97.84;98870.50;5036816;28;20624;-65
2022/01/20 07:38:35;;;;;;;3.90;2.27;;;;;;;2.46;97.79;98875.63;5037114;28;20190;-66
2022/01/20 07:41:01;;;;;;;3.40;2.20;;;;;;;2.43;98.12;98884.59;5037027;28;20221;-66
2022/01/20 07:43:28;;;;;;;4.77;2.50;;;;;;;2.41;98.12;98880.47;5037157;28;20206;-66
2022/01/20 07:45:55;;;;;;;5.17;2.37;;;;;;;2.44;97.11;98885.44;5036932;28;20604;-66
2022/01/20 07:48:21;;;;;;;5.40;2.57;;;;;;;2.40;97.74;98884.09;5037222;28;20213;-66
2022/01/20 07:50:48;;;;;;;5.27;2.93;;;;;;;2.44;97.80;98893.31;5036733;28;20232;-66
2022/01/20 07:53:14;;;;;;;6.03;2.77;;;;;;;2.45;97.59;98902.84;5036991;28;20510;-66
2022/01/20 07:55:40;;;;;;;6.30;2.83;;;;;;;2.50;97.33;98896.19;5037015;28;20214;-66
2022/01/20 07:58:07;;;;;;;4.77;2.23;;;;;;;2.51;97.97;98895.19;5036483;28;20216;-66
2022/01/20 08:00:33;;;;;;;5.57;2.77;;;;;;;2.61;97.03;98905.63;5037048;28;20516;-65
2022/01/20 08:03:00;;;;;;;4.57;2.40;;;;;;;2.67;95.94;98897.16;5036926;28;20209;-66
2022/01/20 08:05:26;;;;;;;7.33;2.37;;;;;;;2.70;95.21;98912.59;5036957;28;20210;-66
2022/01/20 08:07:52;;;;;;;9.33;2.43;;;;;;;2.68;95.54;98897.03;5036964;28;20209;-66
2022/01/20 08:10:19;;;;;;;6.07;2.83;;;;;;;2.82;94.42;98904.38;5036409;28;20233;-66
2022/01/20 08:12:46;;;;;;;4.67;2.30;;;;;;;2.84;94.19;98901.59;5036791;28;20208;-66
2022/01/20 08:15:14;;;;;;;5.93;2.60;;;;;;;2.99;92.94;98902.72;5035791;28;20640;-66
2022/01/20 08:17:42;;;;;;;4.60;2.10;;;;;;;3.08;92.34;98905.25;5036537;28;20213;-66
2022/01/20 08:20:10;;;;;;;5.13;2.53;;;;;;;3.15;93.26;98916.81;5036754;28;20226;-66
2022/01/20 08:22:37;;;;;;;5.77;3.00;;;;;;;3.19;92.30;98912.06;5036325;28;20209;-66
2022/01/20 08:25:10;;;;;;;8.90;2.67;;;;;;;3.19;92.76;98914.69;5036469;28;20221;-66
2022/01/20 08:27:37;;;;;;;5.53;2.80;;;;;;;3.24;92.88;98907.19;5036230;28;20194;-66
2022/01/20 08:30:10;;;;;;;6.40;2.27;;;;;;;3.25;91.41;98908.84;5038045;28;20218;-66
2022/01/20 08:32:36;;;;;;;5.67;2.60;;;;;;;3.21;92.23;98910.94;5056281;28;20200;-66
2022/01/20 08:35:06;;;;;;;5.23;2.73;;;;;;;3.25;90.13;98911.50;5056400;28;20194;-66
2022/01/20 08:37:40;;;;;;;6.60;2.50;;;;;;;3.22;91.53;98909.16;5056334;28;20201;-65
2022/01/20 08:40:11;;;;;;;11.00;2.93;;;;;;;3.28;90.26;98916.41;5056259;28;20274;-67
2022/01/20 08:42:37;;;;;;;6.50;3.03;;;;;;;3.21;88.71;98921.44;5056223;28;20198;-66
2022/01/20 08:45:04;;;;;;;8.53;2.53;;;;;;;3.24;89.54;98921.16;5055921;28;20603;-66
2022/01/20 08:47:30;;;;;;;5.90;2.70;;;;;;;3.29;88.52;98928.59;5056161;28;20216;-67
2022/01/20 08:49:58;;;;;;;10.17;2.73;;;;;;;3.33;87.20;98932.53;5056139;28;20232;-65
2022/01/20 08:52:28;;;;;;;7.97;3.20;;;;;;;3.39;87.20;98935.41;5055518;28;20189;-65
2022/01/20 08:54:55;;;;;;;10.23;3.03;;;;;;;3.43;87.35;98941.19;5055406;28;20550;-66
2022/01/20 08:57:21;;;;;;;9.53;2.90;;;;;;;3.41;86.87;98951.84;5055817;28;20193;-65
2022/01/20 08:59:47;;;;;;;6.80;3.27;;;;;;;3.41;87.71;98956.28;5055708;28;20244;-65
2022/01/20 09:02:14;;;;;;;8.37;3.13;;;;;;;3.47;86.84;98959.13;5056141;28;20190;-65
2022/01/20 09:04:41;;;;;;;10.97;3.27;;;;;;;3.50;86.68;98971.13;5056135;28;20190;-66
2022/01/20 09:07:07;;;;;;;6.67;2.70;;;;;;;3.54;88.21;98969.84;5056085;28;20284;-66
2022/01/20 09:09:39;;;;;;;8.37;3.27;;;;;;;3.52;86.22;98971.81;5055835;28;20201;-65
2022/01/20 09:12:18;;;;;;;7.33;2.63;;;;;;;3.58;86.17;98976.47;5055670;28;20581;-65
2022/01/20 09:17:32;;;;;;;6.33;2.50;;;;;;;3.72;85.91;98973.28;5055631;28;20169;-65
2022/01/20 09:20:00;;;;;;;11.63;3.27;;;;;;;3.72;84.29;98968.03;5055661;28;20225;-66
2022/01/20 09:22:29;;;;;;;7.83;2.80;;;;;;;3.89;84.20;98964.53;5055660;28;20194;-66
2022/01/20 09:24:55;;;;;;;6.10;3.20;;;;;;;3.89;84.98;98949.56;5055984;28;20197;-66
2022/01/20 09:27:21;;;;;;;6.80;3.07;;;;;;;3.95;85.06;98950.75;5058740;28;20197;-66
2022/01/20 09:29:48;;;;;;;5.70;2.70;;;;;;;4.01;85.38;98950.09;5059496;28;20225;-66
2022/01/20 09:32:16;;;;;;;5.50;2.40;;;;;;;3.90;84.10;98947.75;5059758;28;20201;-66
2022/01/20 09:34:43;;;;;;;10.40;2.87;;;;;;;4.05;84.27;98961.97;5059906;28;20217;-65
2022/01/20 09:37:09;;;;;;;7.63;3.00;;;;;;;4.03;83.83;98977.09;5059508;28;20220;-67
2022/01/20 09:39:37;;;;;;;8.33;2.83;;;;;;;3.94;83.35;98960.44;5059298;28;20604;-66
2022/01/20 09:42:05;;;;;;;7.10;3.00;;;;;;;3.96;83.42;98960.28;5059367;28;20209;-66
2022/01/20 09:44:31;;;;;;;8.60;2.70;;;;;;;3.91;83.56;98963.38;5059590;28;20201;-65
2022/01/20 09:46:57;;;;;;;8.07;3.23;;;;;;;4.00;84.19;98957.19;5059127;28;20191;-65
2022/01/20 09:49:24;;;;;;;8.73;3.03;;;;;;;4.02;83.68;98954.41;5059309;28;20205;-66
2022/01/20 09:51:50;;;;;;;6.00;2.87;;;;;;;3.99;82.88;98955.56;5059098;28;20229;-65
2022/01/20 09:54:18;;;;;;;7.27;2.97;;;;;;;3.97;83.32;98946.16;5059331;28;20190;-66
2022/01/20 09:56:45;;;;;;;6.03;2.90;;;;;;;3.98;83.53;98956.50;5058999;28;20656;-65
2022/01/20 09:59:14;;;;;;;9.00;2.83;;;;;;;4.02;83.70;98949.16;5058752;28;20197;-65
2022/01/20 10:01:44;;;;;;;11.00;3.33;;;;;;;4.12;82.93;98958.56;5059123;28;20233;-65
2022/01/20 10:04:36;;;;;;;8.30;2.60;;;;;;;4.15;83.72;98962.69;5059176;28;20197;-66
2022/01/20 10:07:12;;;;;;;9.27;3.00;;;;;;;4.11;82.45;98974.53;5058916;28;20209;-65
2022/01/20 10:09:45;;;;;;;7.00;2.13;;;;;;;4.15;83.56;98981.09;5058821;28;20197;-65
2022/01/20 10:12:14;;;;;;;7.27;2.77;;;;;;;4.14;85.05;98988.19;5059071;28;20229;-65
2022/01/20 10:14:53;;;;;;;11.43;2.93;;;;;;;4.14;82.73;98990.81;5058599;28;20244;-65
2022/01/20 10:17:28;;;;;;;9.87;3.00;;;;;;;4.17;83.73;98979.16;5059009;28;20223;-66
2022/01/20 10:20:01;;;;;;;9.90;3.07;;;;;;;4.09;84.93;98971.22;5058895;28;20220;-66
2022/01/20 10:22:29;;;;;;;11.93;3.10;;;;;;;4.12;82.69;98981.44;5058635;28;20201;-66
2022/01/20 10:25:20;;;;;;;8.50;3.07;;;;;;;4.19;80.80;98985.06;5058730;28;20196;-65
2022/01/20 10:27:54;;;;;;;8.70;2.93;;;;;;;4.12;83.20;98982.25;5058285;28;20201;-65
2022/01/20 10:30:23;;;;;;;7.73;2.53;;;;;;;4.22;82.14;98990.03;5058412;28;20230;-65
2022/01/20 10:32:52;;;;;;;4.43;2.87;;;;;;;4.28;81.59;98994.66;5058205;28;20576;-65
2022/01/20 10:35:25;;;;;;;10.23;3.10;;;;;;;4.20;80.86;98989.38;5058031;28;20205;-65
2022/01/20 10:37:59;;;;;;;7.83;3.03;;;;;;;4.17;81.03;98979.16;5057178;28;20598;-66
2022/01/20 10:40:26;;;;;;;7.43;3.07;;;;;;;4.19;82.24;98971.91;5058060;28;20532;-66
2022/01/20 10:42:53;;;;;;;14.27;3.23;;;;;;;4.21;81.20;98969.97;5057790;28;20209;-65
2022/01/20 10:45:26;;;;;;;7.80;3.10;;;;;;;4.31;81.84;98965.41;5057884;28;20571;-65
2022/01/20 10:47:55;;;;;;;8.97;3.43;;;;;;;4.44;80.54;98961.34;5058324;28;20201;-66
2022/01/20 10:50:30;;;;;;;8.23;3.30;;;;;;;4.39;80.06;98973.34;5057879;28;20643;-65
2022/01/20 10:52:57;;;;;;;13.43;3.87;;;;;;;4.51;80.99;98966.81;5058190;28;20193;-66
2022/01/20 10:55:33;;;;;;;6.53;2.83;;;;;;;4.51;79.61;98964.16;5057774;28;20598;-66
2022/01/20 10:58:20;;;;;;;7.13;3.20;;;;;;;4.62;79.67;98969.16;5058098;28;20261;-66
2022/01/20 11:00:49;;;;;;;6.30;2.90;;;;;;;4.51;79.93;98970.28;5057287;28;20328;-65
2022/01/20 11:03:17;;;;;;;9.50;3.53;;;;;;;4.56;80.32;98957.44;5057741;28;20193;-65
2022/01/20 11:05:49;;;;;;;8.70;3.10;;;;;;;4.64;79.24;98954.00;5055486;28;20189;-64
2022/01/20 11:08:16;;;;;;;12.73;3.03;;;;;;;4.54;79.41;98961.22;5056120;28;20194;-63
2022/01/20 11:10:44;;;;;;;11.50;3.00;;;;;;;4.46;79.97;98948.03;5056734;28;20233;-70
2022/01/20 11:13:12;;;;;;;10.30;3.33;;;;;;;4.44;80.40;98944.75;5056684;28;20280;-73
2022/01/20 11:15:40;;;;;;;7.80;2.93;;;;;;;4.45;80.89;98955.13;5057256;28;20583;-71
2022/01/20 11:18:08;;;;;;;8.57;3.40;;;;;;;4.39;80.47;98947.03;5057452;28;20186;-71
2022/01/20 11:20:50;;;;;;;6.47;3.00;;;;;;;4.31;81.31;98929.41;5057740;28;20221;-70
2022/01/20 11:23:16;;;;;;;9.73;3.50;;;;;;;4.40;80.95;98935.50;5058293;28;20198;-72
2022/01/20 11:25:44;;;;;;;9.73;3.60;;;;;;;4.37;81.38;98933.19;5057713;28;20193;-70
2022/01/20 11:28:12;;;;;;;8.53;3.37;;;;;;;4.61;80.87;98920.13;5057217;28;20209;-72
2022/01/20 11:30:42;;;;;;;8.90;3.17;;;;;;;4.39;80.38;98926.78;5057283;28;20231;-72
2022/01/20 11:33:14;;;;;;;10.70;3.50;;;;;;;4.46;80.04;98929.59;5057100;28;20227;-70
2022/01/20 11:35:54;;;;;;;10.50;3.27;;;;;;;4.44;79.83;98923.69;5057984;28;20190;-73
2022/01/20 11:38:23;;;;;;;12.33;2.90;;;;;;;4.46;79.10;98921.69;5057279;28;20190;-72
2022/01/20 11:41:02;;;;;;;9.77;2.87;;;;;;;4.41;79.89;98911.66;5057039;28;20232;-71
2022/01/20 11:43:46;;;;;;;7.30;3.03;;;;;;;4.43;79.40;98919.41;5056957;28;20579;-72
2022/01/20 11:46:25;;;;;;;8.60;2.90;;;;;;;4.70;79.93;98914.69;5057167;28;20213;-72
2022/01/20 11:48:57;;;;;;;7.03;3.30;;;;;;;4.72;78.38;98907.47;5056949;28;20189;-71
2022/01/20 11:51:26;;;;;;;6.30;2.47;;;;;;;4.70;77.14;98892.81;5056467;28;20248;-71
2022/01/20 11:54:04;;;;;;;4.60;2.70;;;;;;;4.99;76.36;98896.66;5057146;28;20201;-71
2022/01/20 11:56:35;;;;;;;6.97;2.47;;;;;;;4.95;74.96;98897.13;5056876;28;20213;-71
2022/01/20 11:59:06;;;;;;;7.07;2.57;;;;;;;5.20;76.84;98893.53;5056604;28;20624;-71
2022/01/20 12:01:51;;;;;;;10.50;2.70;;;;;;;5.13;76.27;98893.34;5057011;28;20225;-71
2022/01/20 12:04:30;;;;;;;9.13;2.40;;;;;;;5.04;75.26;98886.44;5056962;28;20212;-71
2022/01/20 12:06:57;;;;;;;8.03;2.40;;;;;;;4.94;74.83;98890.22;5056124;28;20484;-71
2022/01/20 12:09:36;;;;;;;5.53;2.30;;;;;;;4.92;76.02;98887.72;5056710;28;20208;-72
2022/01/20 12:12:06;;;;;;;7.27;2.47;;;;;;;4.92;76.38;98886.91;5056636;28;20189;-71
2022/01/20 12:14:38;;;;;;;7.20;2.47;;;;;;;4.68;77.53;98894.78;5056340;28;20599;-72
2022/01/20 12:17:11;;;;;;;6.30;2.20;;;;;;;4.51;75.62;98895.72;5056652;28;20275;-70
2022/01/20 12:19:37;;;;;;;6.87;2.43;;;;;;;4.42;76.82;98908.03;5056544;28;20221;-69
2022/01/20 12:22:05;;;;;;;3.53;0.90;;;;;;;3.27;81.54;98933.16;5056121;28;20197;-72
2022/01/20 12:24:34;;;;;;;2.93;1.10;;;;;;;2.29;89.82;98948.06;5056206;28;20295;-71
2022/01/20 12:27:01;;;;;;;3.37;0.93;;;;;;;1.78;93.32;98944.28;5056330;28;20492;-72
2022/01/20 12:29:38;;;;;;;3.60;1.37;;;;;;;1.58;95.50;98953.16;5056460;28;20200;-72
2022/01/20 12:32:14;;;;;;;9.00;2.03;;;;;;;1.44;96.58;98948.34;5056466;28;20205;-72